Konpira2 — JJ3664 — position and weather

sailwx.info

Track history (hours):
 
Tides and Currents Weather Stations Pressure Air Temp Water Temp Dewpoint Dewpoint Depression Visibility Wind Speed Wind Dir Waves Ship Positions

Konpira2

Last reported at 2018-Jun-24 14:00 UTC. Time now 2018-Jun-24 14:33 UTC.
Position N 34°41' E 135°12'.

Length 108 m; draft 4.7 m.

Type: Ship. MMSI: 431000457.

Date/timePositionNaut miles runAvg speedWind from/ knotsBaromVisibWave heightAir tempDewpointWater temp
2018-Jun-24 14:00N 34°41' E 135°12'0 0.0
2018-Jun-24 13:30N 34°41' E 135°12'0 0.0
2018-Jun-24 13:00N 34°41' E 135°12'0 0.0
2018-Jun-24 12:30N 34°41' E 135°12'4 8.9
2018-Jun-24 12:01N 34°37' E 135°10'714.4
2018-Jun-24 11:30N 34°37' E 135°01'916.4
2018-Jun-24 10:59N 34°34' E 134°51'816.4
2018-Jun-24 10:31N 34°31' E 134°43'917.3
2018-Jun-24 10:01N 34°28' E 134°33'816.8
2018-Jun-24 09:30N 34°25' E 134°23'4 4.8
2018-Jun-24 08:40N 34°26' E 134°18'316.5
2018-Jun-24 08:29N 34°25' E 134°15'5 2.8
2018-Jun-24 06:46N 34°25' E 134°09'414.8
2018-Jun-24 06:29N 34°24' E 134°14'5 5.9
2018-Jun-24 05:39N 34°26' E 134°19'216.0
2018-Jun-24 05:30N 34°26' E 134°22'917.7
2018-Jun-24 05:00N 34°29' E 134°32'917.9
2018-Jun-24 04:30N 34°32' E 134°42'917.3
2018-Jun-24 04:00N 34°35' E 134°52'813.3
2018-Jun-24 03:25N 34°37' E 135°01'511.6
2018-Jun-24 03:00N 34°36' E 135°07'611.7
2018-Jun-24 02:30N 34°41' E 135°12'0 0.6
2018-Jun-24 02:01N 34°41' E 135°12'1 1.3
2018-Jun-24 01:31N 34°40' E 135°12'815.1
2018-Jun-24 01:01N 34°35' E 135°05'916.9
2018-Jun-24 00:30N 34°35' E 134°55'918.0
2018-Jun-24 00:00N 34°32' E 134°45'917.7
2018-Jun-23 23:30N 34°28' E 134°35'917.5
2018-Jun-23 23:00N 34°26' E 134°25'5 5.6
2018-Jun-23 22:03N 34°26' E 134°18'114.0
2018-Jun-23 22:01N 34°26' E 134°18'10 4.3
2018-Jun-23 19:40N 34°24' E 134°06'518.3
2018-Jun-23 19:25N 34°24' E 134°11'718.3
2018-Jun-23 19:01N 34°25' E 134°20'917.7
2018-Jun-23 18:31N 34°28' E 134°30'917.5
2018-Jun-23 18:01N 34°31' E 134°40'917.7
2018-Jun-23 17:31N 34°35' E 134°50'916.7
2018-Jun-23 16:57N 34°37' E 135°01'614.8
2018-Jun-23 16:31N 34°37' E 135°09'4 8.6
2018-Jun-23 16:00N 34°41' E 135°12'0 0.0
2018-Jun-23 15:30N 34°41' E 135°12'0 0.0
2018-Jun-23 15:01N 34°41' E 135°12'0 0.0
2018-Jun-23 14:30N 34°41' E 135°12'0 0.0
2018-Jun-23 14:00N 34°41' E 135°12'0 0.0
2018-Jun-23 13:30N 34°41' E 135°12'0 0.0
2018-Jun-23 13:01N 34°41' E 135°12'0 0.0
2018-Jun-23 12:30N 34°41' E 135°12'1 2.2
2018-Jun-23 12:00N 34°40' E 135°12'815.6
2018-Jun-23 11:30N 34°35' E 135°04'815.5
2018-Jun-23 11:00N 34°35' E 134°55'816.4
2018-Jun-23 10:30N 34°32' E 134°46'917.2
2018-Jun-23 10:00N 34°29' E 134°36'917.4
2018-Jun-23 09:30N 34°26' E 134°26'7 6.8
2018-Jun-23 08:29N 34°26' E 134°18'7 3.2
2018-Jun-23 06:23N 34°25' E 134°10'615.1
2018-Jun-23 06:00N 34°26' E 134°17'2 3.4
2018-Jun-23 05:26N 34°26' E 134°19'716.8
2018-Jun-23 05:01N 34°28' E 134°28'918.1
2018-Jun-23 04:30N 34°31' E 134°38'917.7
2018-Jun-23 04:01N 34°34' E 134°48'816.8
2018-Jun-23 03:30N 34°37' E 134°58'713.6
2018-Jun-23 03:01N 34°36' E 135°06'713.1
2018-Jun-23 02:30N 34°40' E 135°12'1 1.7
2018-Jun-23 02:00N 34°41' E 135°12'0 0.0
2018-Jun-23 01:30N 34°41' E 135°12'510.4
2018-Jun-23 01:01N 34°37' E 135°08'815.7
2018-Jun-23 00:30N 34°37' E 134°58'918.6
2018-Jun-22 23:59N 34°32' E 134°48'918.0
2018-Jun-22 23:30N 34°29' E 134°39'917.8
2018-Jun-22 23:01N 34°26' E 134°28'815.1
2018-Jun-22 22:30N 34°26' E 134°19'1 1.9
2018-Jun-22 21:56N 34°26' E 134°18'716.6
2018-Jun-22 21:30N 34°24' E 134°10'2 1.2
2018-Jun-22 19:33N 34°24' E 134°07'318.1
2018-Jun-22 19:23N 34°25' E 134°11'718.3
2018-Jun-22 19:00N 34°25' E 134°19'917.6
2018-Jun-22 18:31N 34°27' E 134°29'917.6
2018-Jun-22 18:00N 34°31' E 134°39'917.9
2018-Jun-22 17:30N 34°34' E 134°49'918.0
2018-Jun-22 17:00N 34°37' E 134°59'815.3
2018-Jun-22 16:31N 34°37' E 135°08'5 9.6
2018-Jun-22 16:01N 34°41' E 135°12'0 0.0
2018-Jun-22 15:31N 34°41' E 135°12'0 0.0
2018-Jun-22 15:01N 34°41' E 135°12'1 1.8
2018-Jun-22 14:31N 34°40' E 135°12'815.5
2018-Jun-22 14:00N 34°35' E 135°05'917.3
2018-Jun-22 13:30N 34°35' E 134°54'918.7
2018-Jun-22 13:00N 34°31' E 134°44'917.9
2018-Jun-22 12:30N 34°28' E 134°34'917.2
2018-Jun-22 12:00N 34°26' E 134°24'4 5.6
2018-Jun-22 11:13N 34°26' E 134°18'317.0
2018-Jun-22 11:01N 34°24' E 134°15'7 3.1
2018-Jun-22 08:40N 34°24' E 134°06'317.0
2018-Jun-22 08:30N 34°24' E 134°10'8 8.1
2018-Jun-22 07:29N 34°26' E 134°19'816.7
2018-Jun-22 07:01N 34°28' E 134°29'917.9
2018-Jun-22 06:30N 34°31' E 134°39'918.4
2018-Jun-22 06:01N 34°34' E 134°50'1018.6
2018-Jun-22 05:30N 34°37' E 135°00'715.1
2018-Jun-22 05:01N 34°38' E 135°09'4 8.0
2018-Jun-22 04:30N 34°41' E 135°12'0 0.0
2018-Jun-22 04:00N 34°41' E 135°12'0 0.0
2018-Jun-22 03:30N 34°41' E 135°12'0 0.0
2018-Jun-22 03:00N 34°41' E 135°12'0 0.0
2018-Jun-22 02:30N 34°41' E 135°12'0 0.0
2018-Jun-22 02:00N 34°41' E 135°12'0 0.5
2018-Jun-22 01:30N 34°41' E 135°12'814.8
2018-Jun-22 00:59N 34°35' E 135°06'1018.9
2018-Jun-22 00:29N 34°36' E 134°54'918.9
2018-Jun-22 00:00N 34°31' E 134°45'918.1
2018-Jun-21 23:30N 34°28' E 134°34'917.1
2018-Jun-21 23:00N 34°26' E 134°24'5 6.0
2018-Jun-21 22:12N 34°26' E 134°18'417.4
2018-Jun-21 21:59N 34°24' E 134°15'7 3.2
2018-Jun-21 19:40N 34°24' E 134°06'316.4
2018-Jun-21 19:29N 34°24' E 134°09'817.0
2018-Jun-21 19:00N 34°25' E 134°19'917.3
2018-Jun-21 18:30N 34°28' E 134°29'917.2
2018-Jun-21 18:00N 34°31' E 134°38'917.7
2018-Jun-21 17:30N 34°34' E 134°48'918.5
2018-Jun-21 17:00N 34°38' E 134°59'815.9
2018-Jun-21 16:30N 34°37' E 135°08'5 9.8
2018-Jun-21 16:00N 34°41' E 135°12'0 0.0
2018-Jun-21 15:31N 34°41' E 135°12'0 0.0
2018-Jun-21 15:01N 34°41' E 135°12'3 5.0
2018-Jun-21 14:30N 34°38' E 135°11'714.1
2018-Jun-21 14:00N 34°35' E 135°03'816.8
2018-Jun-21 13:31N 34°35' E 134°53'918.1
2018-Jun-21 13:00N 34°31' E 134°44'917.5
2018-Jun-21 12:31N 34°28' E 134°34'917.0
2018-Jun-21 12:00N 34°25' E 134°24'5 5.7
2018-Jun-21 11:10N 34°26' E 134°18'317.0
2018-Jun-21 11:00N 34°25' E 134°15'3 1.3
2018-Jun-21 08:26N 34°24' E 134°11'7 6.9
2018-Jun-21 07:25N 34°26' E 134°19'716.8
2018-Jun-21 07:00N 34°28' E 134°27'918.1
2018-Jun-21 06:30N 34°31' E 134°38'918.6
2018-Jun-21 06:00N 34°34' E 134°48'1118.4
2018-Jun-21 05:23N 34°37' E 135°02'616.2
2018-Jun-21 05:00N 34°37' E 135°09'4 9.0
2018-Jun-21 04:30N 34°41' E 135°12'0 0.0
2018-Jun-21 04:00N 34°41' E 135°12'0 0.0
2018-Jun-21 03:31N 34°41' E 135°12'0 0.0
2018-Jun-21 03:01N 34°41' E 135°12'0 0.0
2018-Jun-21 02:31N 34°41' E 135°12'0 0.0
2018-Jun-21 02:00N 34°41' E 135°12'1 1.9
2018-Jun-21 01:30N 34°40' E 135°12'815.5
2018-Jun-21 01:00N 34°35' E 135°04'918.2
2018-Jun-21 00:30N 34°35' E 134°53'918.5
2018-Jun-21 00:00N 34°31' E 134°44'918.1
2018-Jun-20 23:30N 34°28' E 134°33'816.9
2018-Jun-20 23:00N 34°26' E 134°23'4 5.0
2018-Jun-20 22:11N 34°26' E 134°18'417.9
2018-Jun-20 21:59N 34°25' E 134°14'7 2.9
2018-Jun-20 19:38N 34°24' E 134°06'315.6
2018-Jun-20 19:26N 34°25' E 134°10'716.5
2018-Jun-20 19:00N 34°25' E 134°19'817.0
2018-Jun-20 18:31N 34°28' E 134°28'917.4
2018-Jun-20 18:01N 34°31' E 134°38'918.2
2018-Jun-20 17:31N 34°34' E 134°48'1019.6
2018-Jun-20 17:01N 34°38' E 134°59'816.0
2018-Jun-20 16:31N 34°38' E 135°09'4 8.2
2018-Jun-20 16:00N 34°41' E 135°12'0 0.0
2018-Jun-20 15:30N 34°41' E 135°12'0 0.0
2018-Jun-20 15:00N 34°41' E 135°12'4 8.3
2018-Jun-20 14:30N 34°37' E 135°10'714.0
2018-Jun-20 14:00N 34°37' E 135°01'816.7
2018-Jun-20 13:30N 34°34' E 134°52'917.6
2018-Jun-20 13:00N 34°30' E 134°42'917.4
2018-Jun-20 12:30N 34°28' E 134°32'816.2
2018-Jun-20 12:00N 34°26' E 134°23'3 4.2
2018-Jun-20 11:13N 34°26' E 134°18'416.9
2018-Jun-20 10:58N 34°24' E 134°14'7 3.1
2018-Jun-20 08:48N 34°24' E 134°06'515.6
2018-Jun-20 08:28N 34°24' E 134°12'613.1
2018-Jun-20 08:00N 34°27' E 134°19'1 2.8
2018-Jun-20 07:30N 34°26' E 134°20'816.8
2018-Jun-20 07:00N 34°28' E 134°29'917.9
2018-Jun-20 06:30N 34°31' E 134°40'918.4
2018-Jun-20 06:00N 34°35' E 134°50'1018.1
2018-Jun-20 05:28N 34°37' E 135°01'715.3
2018-Jun-20 05:00N 34°37' E 135°10'4 8.2
2018-Jun-20 04:30N 34°41' E 135°12'0 0.0
2018-Jun-20 04:00N 34°41' E 135°12'0 0.0
2018-Jun-20 03:30N 34°41' E 135°12'0 0.0
2018-Jun-20 03:01N 34°41' E 135°12'0 0.0
2018-Jun-20 02:30N 34°41' E 135°12'0 0.0
2018-Jun-20 01:59N 34°41' E 135°12'3 5.8
2018-Jun-20 01:31N 34°38' E 135°11'714.4
2018-Jun-20 01:00N 34°36' E 135°03'917.2
2018-Jun-20 00:27N 34°34' E 134°52'818.3
2018-Jun-20 00:00N 34°30' E 134°42'918.0
2018-Jun-19 23:30N 34°27' E 134°32'816.7
2018-Jun-19 23:00N 34°26' E 134°22'3 3.9
2018-Jun-19 22:14N 34°27' E 134°19'416.3
2018-Jun-19 21:59N 34°24' E 134°15'7 3.1
2018-Jun-19 19:40N 34°24' E 134°06'716.1
2018-Jun-19 19:12N 34°25' E 134°15'317.1
2018-Jun-19 19:01N 34°25' E 134°19'917.3
2018-Jun-19 18:30N 34°28' E 134°29'917.5
2018-Jun-19 18:00N 34°31' E 134°39'918.9
2018-Jun-19 17:30N 34°34' E 134°50'1019.4
2018-Jun-19 16:59N 34°37' E 135°01'715.0
2018-Jun-19 16:30N 34°38' E 135°10'4 7.5
2018-Jun-19 16:00N 34°41' E 135°12'0 0.0
2018-Jun-19 15:30N 34°41' E 135°12'1 1.0
2018-Jun-19 15:00N 34°40' E 135°12'715.0
2018-Jun-19 14:30N 34°35' E 135°06'611.9
2018-Jun-19 14:01N 34°37' E 134°59'815.7
2018-Jun-19 13:30N 34°33' E 134°51'817.0
2018-Jun-19 13:01N 34°30' E 134°41'917.2
2018-Jun-19 12:31N 34°27' E 134°31'816.0
2018-Jun-19 12:00N 34°25' E 134°22'3 3.9
2018-Jun-19 11:12N 34°26' E 134°18'316.3
2018-Jun-19 11:00N 34°25' E 134°15'7 3.4
2018-Jun-19 08:50N 34°24' E 134°06'715.0
2018-Jun-19 08:24N 34°24' E 134°14'5 5.5
2018-Jun-19 07:32N 34°26' E 134°19'013.3
2018-Jun-19 07:30N 34°26' E 134°20'816.8
2018-Jun-19 07:00N 34°29' E 134°29'917.1
2018-Jun-19 06:30N 34°32' E 134°39'917.8
2018-Jun-19 06:01N 34°34' E 134°49'918.1
2018-Jun-19 05:30N 34°38' E 134°60'815.5
2018-Jun-19 05:01N 34°37' E 135°09'5 9.4
2018-Jun-19 04:30N 34°41' E 135°12'0 0.0
2018-Jun-19 04:00N 34°41' E 135°12'0 0.0
2018-Jun-19 03:30N 34°41' E 135°12'0 0.0
2018-Jun-19 03:00N 34°41' E 135°12'0 0.0
2018-Jun-19 02:30N 34°41' E 135°12'0 0.0
2018-Jun-19 02:00N 34°41' E 135°12'1 2.5
2018-Jun-19 01:30N 34°40' E 135°12'815.5
2018-Jun-19 01:00N 34°35' E 135°04'816.0
2018-Jun-19 00:30N 34°35' E 134°55'917.9
2018-Jun-19 00:00N 34°32' E 134°45'917.9
2018-Jun-18 23:30N 34°29' E 134°34'917.7
2018-Jun-18 23:00N 34°26' E 134°24'5 6.4
2018-Jun-18 22:10N 34°26' E 134°18'318.0
2018-Jun-18 22:00N 34°25' E 134°15'7 3.6
2018-Jun-18 19:57N 34°24' E 134°06'714.9
2018-Jun-18 19:30N 34°24' E 134°14'816.7
2018-Jun-18 19:00N 34°26' E 134°24'917.1
2018-Jun-18 18:30N 34°29' E 134°34'917.6
2018-Jun-18 18:00N 34°32' E 134°43'918.7
2018-Jun-18 17:30N 34°36' E 134°54'917.6
2018-Jun-18 17:00N 34°36' E 135°05'713.2
2018-Jun-18 16:30N 34°40' E 135°11'1 2.3
2018-Jun-18 16:00N 34°41' E 135°12'0 0.0
2018-Jun-18 15:31N 34°41' E 135°12'3 5.9
2018-Jun-18 15:01N 34°38' E 135°11'714.2
2018-Jun-18 14:30N 34°36' E 135°03'5 9.3
2018-Jun-18 14:00N 34°36' E 134°57'914.8
2018-Jun-18 13:23N 34°32' E 134°47'616.5
2018-Jun-18 13:00N 34°30' E 134°40'917.3
2018-Jun-18 12:30N 34°27' E 134°30'815.2
2018-Jun-18 11:59N 34°26' E 134°20'2 3.0
2018-Jun-18 11:20N 34°26' E 134°18'6 2.2
2018-Jun-18 08:45N 34°25' E 134°12'413.0
2018-Jun-18 08:25N 34°26' E 134°17'3 4.0
2018-Jun-18 07:47N 34°26' E 134°20'516.4
2018-Jun-18 07:30N 34°27' E 134°25'917.2
2018-Jun-18 07:00N 34°30' E 134°35'917.3
2018-Jun-18 06:30N 34°33' E 134°45'817.0
2018-Jun-18 06:00N 34°36' E 134°54'815.7
2018-Jun-18 05:30N 34°36' E 135°04'714.0
2018-Jun-18 05:00N 34°39' E 135°11'2 3.1
2018-Jun-18 04:30N 34°41' E 135°12'0 0.0
2018-Jun-18 04:00N 34°41' E 135°12'0 0.0
2018-Jun-18 03:30N 34°41' E 135°12'0 0.0
2018-Jun-18 03:00N 34°41' E 135°12'0 0.0
2018-Jun-18 02:30N 34°41' E 135°12'0 0.0
2018-Jun-18 02:00N 34°41' E 135°12'4 8.1
2018-Jun-18 01:30N 34°37' E 135°10'713.9
2018-Jun-18 01:00N 34°37' E 135°01'815.1
2018-Jun-18 00:30N 34°35' E 134°53'917.1
2018-Jun-18 00:00N 34°31' E 134°43'917.6
2018-Jun-17 23:30N 34°28' E 134°33'816.9
2018-Jun-17 23:00N 34°26' E 134°23'4 5.4
2018-Jun-17 22:13N 34°26' E 134°18'416.6
2018-Jun-17 21:58N 34°24' E 134°14'7 2.9
2018-Jun-17 19:36N 34°24' E 134°06'615.5
2018-Jun-17 19:14N 34°24' E 134°13'416.4
2018-Jun-17 19:00N 34°24' E 134°17'917.4
2018-Jun-17 18:30N 34°27' E 134°27'917.7
2018-Jun-17 18:00N 34°30' E 134°37'918.5
2018-Jun-17 17:30N 34°34' E 134°48'1018.8
2018-Jun-17 16:59N 34°37' E 134°58'816.5
2018-Jun-17 16:30N 34°37' E 135°08'510.5
2018-Jun-17 16:00N 34°41' E 135°12'0 0.0
2018-Jun-17 15:30N 34°41' E 135°12'0 0.0
2018-Jun-17 15:00N 34°41' E 135°12'0 0.0
2018-Jun-17 14:30N 34°41' E 135°12'0 0.0
2018-Jun-17 14:00N 34°41' E 135°12'0 0.0
2018-Jun-17 13:30N 34°41' E 135°12'0 0.0
2018-Jun-17 13:00N 34°41' E 135°12'0 0.0
2018-Jun-17 12:30N 34°41' E 135°12'0 0.5
2018-Jun-17 12:00N 34°41' E 135°12'714.5
2018-Jun-17 11:30N 34°35' E 135°06'714.5
2018-Jun-17 11:00N 34°36' E 134°57'1017.5
2018-Jun-17 10:28N 34°33' E 134°47'817.7
2018-Jun-17 10:00N 34°29' E 134°38'917.6
2018-Jun-17 09:30N 34°26' E 134°28'8 7.5
2018-Jun-17 08:26N 34°26' E 134°18'716.8
2018-Jun-17 08:00N 34°24' E 134°10'4 2.9
2018-Jun-17 06:43N 34°23' E 134°05'615.5
2018-Jun-17 06:21N 34°24' E 134°12'513.6
2018-Jun-17 06:00N 34°26' E 134°17'2 2.4
2018-Jun-17 05:23N 34°26' E 134°19'616.3
2018-Jun-17 05:00N 34°27' E 134°27'917.8
2018-Jun-17 04:30N 34°30' E 134°37'918.4
2018-Jun-17 04:00N 34°34' E 134°47'918.5
2018-Jun-17 03:30N 34°37' E 134°57'816.9
2018-Jun-17 03:00N 34°37' E 135°08'611.2
2018-Jun-17 02:30N 34°41' E 135°12'0 0.2
2018-Jun-17 02:00N 34°41' E 135°12'3 6.6
2018-Jun-17 01:30N 34°38' E 135°11'714.6
2018-Jun-17 01:00N 34°36' E 135°02'714.5
2018-Jun-17 00:30N 34°35' E 134°53'816.6
2018-Jun-17 00:00N 34°31' E 134°44'917.3
2018-Jun-16 23:30N 34°28' E 134°34'917.0
2018-Jun-16 23:00N 34°25' E 134°25'5 5.4
2018-Jun-16 22:08N 34°27' E 134°19'212.6
2018-Jun-16 22:00N 34°26' E 134°17'10 4.3
2018-Jun-16 19:45N 34°24' E 134°06'416.0
2018-Jun-16 19:30N 34°25' E 134°10'816.3
2018-Jun-16 19:00N 34°25' E 134°20'917.4
2018-Jun-16 18:30N 34°28' E 134°30'917.7
2018-Jun-16 18:00N 34°31' E 134°40'918.2
2018-Jun-16 17:30N 34°34' E 134°51'917.5
2018-Jun-16 17:00N 34°38' E 135°00'815.1
2018-Jun-16 16:30N 34°37' E 135°10'4 7.9
2018-Jun-16 16:00N 34°41' E 135°12'0 0.0
2018-Jun-16 15:30N 34°41' E 135°12'0 0.0
2018-Jun-16 15:00N 34°41' E 135°12'0 0.0
2018-Jun-16 14:30N 34°41' E 135°12'0 0.0
2018-Jun-16 14:00N 34°41' E 135°12'0 0.0
2018-Jun-16 13:30N 34°41' E 135°12'0 0.0
2018-Jun-16 13:00N 34°41' E 135°12'0 0.3
2018-Jun-16 12:30N 34°41' E 135°12'713.2
2018-Jun-16 12:00N 34°36' E 135°07'713.2
2018-Jun-16 11:30N 34°37' E 134°59'815.1
2018-Jun-16 11:00N 34°34' E 134°51'817.0
2018-Jun-16 10:30N 34°31' E 134°41'917.7
2018-Jun-16 10:00N 34°27' E 134°31'816.7
2018-Jun-16 09:30N 34°25' E 134°22'3 4.3
2018-Jun-16 08:45N 34°26' E 134°18'4 1.6
2018-Jun-16 06:29N 34°24' E 134°14'5 5.4
2018-Jun-16 05:36N 34°26' E 134°20'114.1
2018-Jun-16 05:30N 34°26' E 134°21'816.9
2018-Jun-16 05:00N 34°29' E 134°31'917.5
2018-Jun-16 04:30N 34°32' E 134°41'917.5
2018-Jun-16 04:00N 34°35' E 134°51'916.4
2018-Jun-16 03:28N 34°37' E 135°01'714.6
2018-Jun-16 03:00N 34°38' E 135°09'4 7.8
2018-Jun-16 02:30N 34°41' E 135°12'0 0.0
2018-Jun-16 01:59N 34°41' E 135°12'4 8.4
2018-Jun-16 01:30N 34°37' E 135°10'714.3
2018-Jun-16 01:00N 34°37' E 135°01'815.0
2018-Jun-16 00:30N 34°34' E 134°53'815.9
2018-Jun-16 00:00N 34°31' E 134°44'817.0
2018-Jun-15 23:31N 34°28' E 134°34'917.1
2018-Jun-15 23:00N 34°25' E 134°24'5 5.6
2018-Jun-15 22:06N 34°26' E 134°18'214.8
2018-Jun-15 22:00N 34°26' E 134°17'5 1.9
2018-Jun-15 19:34N 34°25' E 134°11'116.0
2018-Jun-15 19:30N 34°25' E 134°13'816.3
2018-Jun-15 19:01N 34°26' E 134°22'917.6
2018-Jun-15 18:31N 34°29' E 134°32'917.5
2018-Jun-15 18:01N 34°32' E 134°42'917.2
2018-Jun-15 17:31N 34°35' E 134°52'815.6
2018-Jun-15 17:00N 34°37' E 135°01'714.3
2018-Jun-15 16:31N 34°37' E 135°10'4 8.1
2018-Jun-15 16:00N 34°41' E 135°12'0 0.0
2018-Jun-15 15:30N 34°41' E 135°12'1 2.5
2018-Jun-15 15:00N 34°40' E 135°12'715.0
2018-Jun-15 14:30N 34°35' E 135°05'714.5
2018-Jun-15 14:00N 34°36' E 134°56'914.5
2018-Jun-15 13:24N 34°32' E 134°46'615.9
2018-Jun-15 13:00N 34°30' E 134°39'816.3
2018-Jun-15 12:30N 34°27' E 134°30'815.3
2018-Jun-15 12:00N 34°26' E 134°21'3 3.6
2018-Jun-15 11:18N 34°26' E 134°18'415.4
2018-Jun-15 11:01N 34°24' E 134°13'1 0.6
2018-Jun-15 08:35N 34°24' E 134°15'214.6
2018-Jun-15 08:28N 34°25' E 134°17'3 3.8
2018-Jun-15 07:47N 34°26' E 134°20'416.3
2018-Jun-15 07:30N 34°26' E 134°25'917.3
2018-Jun-15 07:00N 34°29' E 134°35'917.2
2018-Jun-15 06:31N 34°32' E 134°45'815.7
2018-Jun-15 06:00N 34°36' E 134°53'712.8
2018-Jun-15 05:25N 34°37' E 135°02'512.7
2018-Jun-15 05:00N 34°37' E 135°09'5 9.5
2018-Jun-15 04:30N 34°41' E 135°12'0 0.0
2018-Jun-15 04:00N 34°41' E 135°12'0 0.0
2018-Jun-15 03:31N 34°41' E 135°12'0 0.0
2018-Jun-15 03:00N 34°41' E 135°12'0 0.0
2018-Jun-15 02:30N 34°41' E 135°12'0 0.2
2018-Jun-15 02:00N 34°41' E 135°12'612.8
2018-Jun-15 01:31N 34°36' E 135°07'815.5
2018-Jun-15 01:00N 34°37' E 134°58'816.0
2018-Jun-15 00:31N 34°34' E 134°49'816.3
2018-Jun-15 00:00N 34°30' E 134°40'917.3
2018-Jun-14 23:31N 34°27' E 134°30'816.0
2018-Jun-14 23:00N 34°25' E 134°21'3 3.4
2018-Jun-14 22:16N 34°26' E 134°18'415.8
2018-Jun-14 21:59N 34°25' E 134°13'6 3.0
2018-Jun-14 19:55N 34°24' E 134°06'716.6
2018-Jun-14 19:30N 34°24' E 134°14'817.0
2018-Jun-14 19:00N 34°26' E 134°24'917.7
2018-Jun-14 18:30N 34°29' E 134°34'917.4
2018-Jun-14 18:00N 34°32' E 134°44'816.6
2018-Jun-14 17:30N 34°36' E 134°53'814.2
2018-Jun-14 16:59N 34°37' E 135°02'613.4
2018-Jun-14 16:30N 34°38' E 135°10'4 7.6
2018-Jun-14 16:00N 34°41' E 135°12'0 0.0
2018-Jun-14 15:31N 34°41' E 135°12'1 1.2
2018-Jun-14 15:00N 34°40' E 135°12'715.0
2018-Jun-14 14:30N 34°35' E 135°05'714.4
2018-Jun-14 14:00N 34°36' E 134°57'  
Track history (hours):
 
Tides and Currents Weather Stations Pressure Air Temp Water Temp Dewpoint Dewpoint Depression Visibility Wind Speed Wind Dir Waves Ship Positions

Konpira2

Last reported at 2018-Jun-24 14:00 UTC. Time now 2018-Jun-24 14:33 UTC.
Position N 34°41' E 135°12'.

Length 108 m; draft 4.7 m.

Type: Ship. MMSI: 431000457.

Date/timePositionNaut miles runAvg speedWind from/ knotsBaromVisibWave heightAir tempDewpointWater temp
2018-Jun-24 14:00N 34°41' E 135°12'0 0.0
2018-Jun-24 13:30N 34°41' E 135°12'0 0.0
2018-Jun-24 13:00N 34°41' E 135°12'0 0.0
2018-Jun-24 12:30N 34°41' E 135°12'4 8.9
2018-Jun-24 12:01N 34°37' E 135°10'714.4
2018-Jun-24 11:30N 34°37' E 135°01'916.4
2018-Jun-24 10:59N 34°34' E 134°51'816.4
2018-Jun-24 10:31N 34°31' E 134°43'917.3
2018-Jun-24 10:01N 34°28' E 134°33'816.8
2018-Jun-24 09:30N 34°25' E 134°23'4 4.8
2018-Jun-24 08:40N 34°26' E 134°18'316.5
2018-Jun-24 08:29N 34°25' E 134°15'5 2.8
2018-Jun-24 06:46N 34°25' E 134°09'414.8
2018-Jun-24 06:29N 34°24' E 134°14'5 5.9
2018-Jun-24 05:39N 34°26' E 134°19'216.0
2018-Jun-24 05:30N 34°26' E 134°22'917.7
2018-Jun-24 05:00N 34°29' E 134°32'917.9
2018-Jun-24 04:30N 34°32' E 134°42'917.3
2018-Jun-24 04:00N 34°35' E 134°52'813.3
2018-Jun-24 03:25N 34°37' E 135°01'511.6
2018-Jun-24 03:00N 34°36' E 135°07'611.7
2018-Jun-24 02:30N 34°41' E 135°12'0 0.6
2018-Jun-24 02:01N 34°41' E 135°12'1 1.3
2018-Jun-24 01:31N 34°40' E 135°12'815.1
2018-Jun-24 01:01N 34°35' E 135°05'916.9
2018-Jun-24 00:30N 34°35' E 134°55'918.0
2018-Jun-24 00:00N 34°32' E 134°45'917.7
2018-Jun-23 23:30N 34°28' E 134°35'917.5
2018-Jun-23 23:00N 34°26' E 134°25'5 5.6
2018-Jun-23 22:03N 34°26' E 134°18'114.0
2018-Jun-23 22:01N 34°26' E 134°18'10 4.3
2018-Jun-23 19:40N 34°24' E 134°06'518.3
2018-Jun-23 19:25N 34°24' E 134°11'718.3
2018-Jun-23 19:01N 34°25' E 134°20'917.7
2018-Jun-23 18:31N 34°28' E 134°30'917.5
2018-Jun-23 18:01N 34°31' E 134°40'917.7
2018-Jun-23 17:31N 34°35' E 134°50'916.7
2018-Jun-23 16:57N 34°37' E 135°01'614.8
2018-Jun-23 16:31N 34°37' E 135°09'4 8.6
2018-Jun-23 16:00N 34°41' E 135°12'0 0.0
2018-Jun-23 15:30N 34°41' E 135°12'0 0.0
2018-Jun-23 15:01N 34°41' E 135°12'0 0.0
2018-Jun-23 14:30N 34°41' E 135°12'0 0.0
2018-Jun-23 14:00N 34°41' E 135°12'0 0.0
2018-Jun-23 13:30N 34°41' E 135°12'0 0.0
2018-Jun-23 13:01N 34°41' E 135°12'0 0.0
2018-Jun-23 12:30N 34°41' E 135°12'1 2.2
2018-Jun-23 12:00N 34°40' E 135°12'815.6
2018-Jun-23 11:30N 34°35' E 135°04'815.5
2018-Jun-23 11:00N 34°35' E 134°55'816.4
2018-Jun-23 10:30N 34°32' E 134°46'917.2
2018-Jun-23 10:00N 34°29' E 134°36'917.4
2018-Jun-23 09:30N 34°26' E 134°26'7 6.8
2018-Jun-23 08:29N 34°26' E 134°18'7 3.2
2018-Jun-23 06:23N 34°25' E 134°10'615.1
2018-Jun-23 06:00N 34°26' E 134°17'2 3.4
2018-Jun-23 05:26N 34°26' E 134°19'716.8
2018-Jun-23 05:01N 34°28' E 134°28'918.1
2018-Jun-23 04:30N 34°31' E 134°38'917.7
2018-Jun-23 04:01N 34°34' E 134°48'816.8
2018-Jun-23 03:30N 34°37' E 134°58'713.6
2018-Jun-23 03:01N 34°36' E 135°06'713.1
2018-Jun-23 02:30N 34°40' E 135°12'1 1.7
2018-Jun-23 02:00N 34°41' E 135°12'0 0.0
2018-Jun-23 01:30N 34°41' E 135°12'510.4
2018-Jun-23 01:01N 34°37' E 135°08'815.7
2018-Jun-23 00:30N 34°37' E 134°58'918.6
2018-Jun-22 23:59N 34°32' E 134°48'918.0
2018-Jun-22 23:30N 34°29' E 134°39'917.8
2018-Jun-22 23:01N 34°26' E 134°28'815.1
2018-Jun-22 22:30N 34°26' E 134°19'1 1.9
2018-Jun-22 21:56N 34°26' E 134°18'716.6
2018-Jun-22 21:30N 34°24' E 134°10'2 1.2
2018-Jun-22 19:33N 34°24' E 134°07'318.1
2018-Jun-22 19:23N 34°25' E 134°11'718.3
2018-Jun-22 19:00N 34°25' E 134°19'917.6
2018-Jun-22 18:31N 34°27' E 134°29'917.6
2018-Jun-22 18:00N 34°31' E 134°39'917.9
2018-Jun-22 17:30N 34°34' E 134°49'918.0
2018-Jun-22 17:00N 34°37' E 134°59'815.3
2018-Jun-22 16:31N 34°37' E 135°08'5 9.6
2018-Jun-22 16:01N 34°41' E 135°12'0 0.0
2018-Jun-22 15:31N 34°41' E 135°12'0 0.0
2018-Jun-22 15:01N 34°41' E 135°12'1 1.8
2018-Jun-22 14:31N 34°40' E 135°12'815.5
2018-Jun-22 14:00N 34°35' E 135°05'917.3
2018-Jun-22 13:30N 34°35' E 134°54'918.7
2018-Jun-22 13:00N 34°31' E 134°44'917.9
2018-Jun-22 12:30N 34°28' E 134°34'917.2
2018-Jun-22 12:00N 34°26' E 134°24'4 5.6
2018-Jun-22 11:13N 34°26' E 134°18'317.0
2018-Jun-22 11:01N 34°24' E 134°15'7 3.1
2018-Jun-22 08:40N 34°24' E 134°06'317.0
2018-Jun-22 08:30N 34°24' E 134°10'8 8.1
2018-Jun-22 07:29N 34°26' E 134°19'816.7
2018-Jun-22 07:01N 34°28' E 134°29'917.9
2018-Jun-22 06:30N 34°31' E 134°39'918.4
2018-Jun-22 06:01N 34°34' E 134°50'1018.6
2018-Jun-22 05:30N 34°37' E 135°00'715.1
2018-Jun-22 05:01N 34°38' E 135°09'4 8.0
2018-Jun-22 04:30N 34°41' E 135°12'0 0.0
2018-Jun-22 04:00N 34°41' E 135°12'0 0.0
2018-Jun-22 03:30N 34°41' E 135°12'0 0.0
2018-Jun-22 03:00N 34°41' E 135°12'0 0.0
2018-Jun-22 02:30N 34°41' E 135°12'0 0.0
2018-Jun-22 02:00N 34°41' E 135°12'0 0.5
2018-Jun-22 01:30N 34°41' E 135°12'814.8
2018-Jun-22 00:59N 34°35' E 135°06'1018.9
2018-Jun-22 00:29N 34°36' E 134°54'918.9
2018-Jun-22 00:00N 34°31' E 134°45'918.1
2018-Jun-21 23:30N 34°28' E 134°34'917.1
2018-Jun-21 23:00N 34°26' E 134°24'5 6.0
2018-Jun-21 22:12N 34°26' E 134°18'417.4
2018-Jun-21 21:59N 34°24' E 134°15'7 3.2
2018-Jun-21 19:40N 34°24' E 134°06'316.4
2018-Jun-21 19:29N 34°24' E 134°09'817.0
2018-Jun-21 19:00N 34°25' E 134°19'917.3
2018-Jun-21 18:30N 34°28' E 134°29'917.2
2018-Jun-21 18:00N 34°31' E 134°38'917.7
2018-Jun-21 17:30N 34°34' E 134°48'918.5
2018-Jun-21 17:00N 34°38' E 134°59'815.9
2018-Jun-21 16:30N 34°37' E 135°08'5 9.8
2018-Jun-21 16:00N 34°41' E 135°12'0 0.0
2018-Jun-21 15:31N 34°41' E 135°12'0 0.0
2018-Jun-21 15:01N 34°41' E 135°12'3 5.0
2018-Jun-21 14:30N 34°38' E 135°11'714.1
2018-Jun-21 14:00N 34°35' E 135°03'816.8
2018-Jun-21 13:31N 34°35' E 134°53'918.1
2018-Jun-21 13:00N 34°31' E 134°44'917.5
2018-Jun-21 12:31N 34°28' E 134°34'917.0
2018-Jun-21 12:00N 34°25' E 134°24'5 5.7
2018-Jun-21 11:10N 34°26' E 134°18'317.0
2018-Jun-21 11:00N 34°25' E 134°15'3 1.3
2018-Jun-21 08:26N 34°24' E 134°11'7 6.9
2018-Jun-21 07:25N 34°26' E 134°19'716.8
2018-Jun-21 07:00N 34°28' E 134°27'918.1
2018-Jun-21 06:30N 34°31' E 134°38'918.6
2018-Jun-21 06:00N 34°34' E 134°48'1118.4
2018-Jun-21 05:23N 34°37' E 135°02'616.2
2018-Jun-21 05:00N 34°37' E 135°09'4 9.0
2018-Jun-21 04:30N 34°41' E 135°12'0 0.0
2018-Jun-21 04:00N 34°41' E 135°12'0 0.0
2018-Jun-21 03:31N 34°41' E 135°12'0 0.0
2018-Jun-21 03:01N 34°41' E 135°12'0 0.0
2018-Jun-21 02:31N 34°41' E 135°12'0 0.0
2018-Jun-21 02:00N 34°41' E 135°12'1 1.9
2018-Jun-21 01:30N 34°40' E 135°12'815.5
2018-Jun-21 01:00N 34°35' E 135°04'918.2
2018-Jun-21 00:30N 34°35' E 134°53'918.5
2018-Jun-21 00:00N 34°31' E 134°44'918.1
2018-Jun-20 23:30N 34°28' E 134°33'816.9
2018-Jun-20 23:00N 34°26' E 134°23'4 5.0
2018-Jun-20 22:11N 34°26' E 134°18'417.9
2018-Jun-20 21:59N 34°25' E 134°14'7 2.9
2018-Jun-20 19:38N 34°24' E 134°06'315.6
2018-Jun-20 19:26N 34°25' E 134°10'716.5
2018-Jun-20 19:00N 34°25' E 134°19'817.0
2018-Jun-20 18:31N 34°28' E 134°28'917.4
2018-Jun-20 18:01N 34°31' E 134°38'918.2
2018-Jun-20 17:31N 34°34' E 134°48'1019.6
2018-Jun-20 17:01N 34°38' E 134°59'816.0
2018-Jun-20 16:31N 34°38' E 135°09'4 8.2
2018-Jun-20 16:00N 34°41' E 135°12'0 0.0
2018-Jun-20 15:30N 34°41' E 135°12'0 0.0
2018-Jun-20 15:00N 34°41' E 135°12'4 8.3
2018-Jun-20 14:30N 34°37' E 135°10'714.0
2018-Jun-20 14:00N 34°37' E 135°01'816.7
2018-Jun-20 13:30N 34°34' E 134°52'917.6
2018-Jun-20 13:00N 34°30' E 134°42'917.4
2018-Jun-20 12:30N 34°28' E 134°32'816.2
2018-Jun-20 12:00N 34°26' E 134°23'3 4.2
2018-Jun-20 11:13N 34°26' E 134°18'416.9
2018-Jun-20 10:58N 34°24' E 134°14'7 3.1
2018-Jun-20 08:48N 34°24' E 134°06'515.6
2018-Jun-20 08:28N 34°24' E 134°12'613.1
2018-Jun-20 08:00N 34°27' E 134°19'1 2.8
2018-Jun-20 07:30N 34°26' E 134°20'816.8
2018-Jun-20 07:00N 34°28' E 134°29'917.9
2018-Jun-20 06:30N 34°31' E 134°40'918.4
2018-Jun-20 06:00N 34°35' E 134°50'1018.1
2018-Jun-20 05:28N 34°37' E 135°01'715.3
2018-Jun-20 05:00N 34°37' E 135°10'4 8.2
2018-Jun-20 04:30N 34°41' E 135°12'0 0.0
2018-Jun-20 04:00N 34°41' E 135°12'0 0.0
2018-Jun-20 03:30N 34°41' E 135°12'0 0.0
2018-Jun-20 03:01N 34°41' E 135°12'0 0.0
2018-Jun-20 02:30N 34°41' E 135°12'0 0.0
2018-Jun-20 01:59N 34°41' E 135°12'3 5.8
2018-Jun-20 01:31N 34°38' E 135°11'714.4
2018-Jun-20 01:00N 34°36' E 135°03'917.2
2018-Jun-20 00:27N 34°34' E 134°52'818.3
2018-Jun-20 00:00N 34°30' E 134°42'918.0
2018-Jun-19 23:30N 34°27' E 134°32'816.7
2018-Jun-19 23:00N 34°26' E 134°22'3 3.9
2018-Jun-19 22:14N 34°27' E 134°19'416.3
2018-Jun-19 21:59N 34°24' E 134°15'7 3.1
2018-Jun-19 19:40N 34°24' E 134°06'716.1
2018-Jun-19 19:12N 34°25' E 134°15'317.1
2018-Jun-19 19:01N 34°25' E 134°19'917.3
2018-Jun-19 18:30N 34°28' E 134°29'917.5
2018-Jun-19 18:00N 34°31' E 134°39'918.9
2018-Jun-19 17:30N 34°34' E 134°50'1019.4
2018-Jun-19 16:59N 34°37' E 135°01'715.0
2018-Jun-19 16:30N 34°38' E 135°10'4 7.5
2018-Jun-19 16:00N 34°41' E 135°12'0 0.0
2018-Jun-19 15:30N 34°41' E 135°12'1 1.0
2018-Jun-19 15:00N 34°40' E 135°12'715.0
2018-Jun-19 14:30N 34°35' E 135°06'611.9
2018-Jun-19 14:01N 34°37' E 134°59'815.7
2018-Jun-19 13:30N 34°33' E 134°51'817.0
2018-Jun-19 13:01N 34°30' E 134°41'917.2
2018-Jun-19 12:31N 34°27' E 134°31'816.0
2018-Jun-19 12:00N 34°25' E 134°22'3 3.9
2018-Jun-19 11:12N 34°26' E 134°18'316.3
2018-Jun-19 11:00N 34°25' E 134°15'7 3.4
2018-Jun-19 08:50N 34°24' E 134°06'715.0
2018-Jun-19 08:24N 34°24' E 134°14'5 5.5
2018-Jun-19 07:32N 34°26' E 134°19'013.3
2018-Jun-19 07:30N 34°26' E 134°20'816.8
2018-Jun-19 07:00N 34°29' E 134°29'917.1
2018-Jun-19 06:30N 34°32' E 134°39'917.8
2018-Jun-19 06:01N 34°34' E 134°49'918.1
2018-Jun-19 05:30N 34°38' E 134°60'815.5
2018-Jun-19 05:01N 34°37' E 135°09'5 9.4
2018-Jun-19 04:30N 34°41' E 135°12'0 0.0
2018-Jun-19 04:00N 34°41' E 135°12'0 0.0
2018-Jun-19 03:30N 34°41' E 135°12'0 0.0
2018-Jun-19 03:00N 34°41' E 135°12'0 0.0
2018-Jun-19 02:30N 34°41' E 135°12'0 0.0
2018-Jun-19 02:00N 34°41' E 135°12'1 2.5
2018-Jun-19 01:30N 34°40' E 135°12'815.5
2018-Jun-19 01:00N 34°35' E 135°04'816.0
2018-Jun-19 00:30N 34°35' E 134°55'917.9
2018-Jun-19 00:00N 34°32' E 134°45'917.9
2018-Jun-18 23:30N 34°29' E 134°34'917.7
2018-Jun-18 23:00N 34°26' E 134°24'5 6.4
2018-Jun-18 22:10N 34°26' E 134°18'318.0
2018-Jun-18 22:00N 34°25' E 134°15'7 3.6
2018-Jun-18 19:57N 34°24' E 134°06'714.9
2018-Jun-18 19:30N 34°24' E 134°14'816.7
2018-Jun-18 19:00N 34°26' E 134°24'917.1
2018-Jun-18 18:30N 34°29' E 134°34'917.6
2018-Jun-18 18:00N 34°32' E 134°43'918.7
2018-Jun-18 17:30N 34°36' E 134°54'917.6
2018-Jun-18 17:00N 34°36' E 135°05'713.2
2018-Jun-18 16:30N 34°40' E 135°11'1 2.3
2018-Jun-18 16:00N 34°41' E 135°12'0 0.0
2018-Jun-18 15:31N 34°41' E 135°12'3 5.9
2018-Jun-18 15:01N 34°38' E 135°11'714.2
2018-Jun-18 14:30N 34°36' E 135°03'5 9.3
2018-Jun-18 14:00N 34°36' E 134°57'914.8
2018-Jun-18 13:23N 34°32' E 134°47'616.5
2018-Jun-18 13:00N 34°30' E 134°40'917.3
2018-Jun-18 12:30N 34°27' E 134°30'815.2
2018-Jun-18 11:59N 34°26' E 134°20'2 3.0
2018-Jun-18 11:20N 34°26' E 134°18'6 2.2
2018-Jun-18 08:45N 34°25' E 134°12'413.0
2018-Jun-18 08:25N 34°26' E 134°17'3 4.0
2018-Jun-18 07:47N 34°26' E 134°20'516.4
2018-Jun-18 07:30N 34°27' E 134°25'917.2
2018-Jun-18 07:00N 34°30' E 134°35'917.3
2018-Jun-18 06:30N 34°33' E 134°45'817.0
2018-Jun-18 06:00N 34°36' E 134°54'815.7
2018-Jun-18 05:30N 34°36' E 135°04'714.0
2018-Jun-18 05:00N 34°39' E 135°11'2 3.1
2018-Jun-18 04:30N 34°41' E 135°12'0 0.0
2018-Jun-18 04:00N 34°41' E 135°12'0 0.0
2018-Jun-18 03:30N 34°41' E 135°12'0 0.0
2018-Jun-18 03:00N 34°41' E 135°12'0 0.0
2018-Jun-18 02:30N 34°41' E 135°12'0 0.0
2018-Jun-18 02:00N 34°41' E 135°12'4 8.1
2018-Jun-18 01:30N 34°37' E 135°10'713.9
2018-Jun-18 01:00N 34°37' E 135°01'815.1
2018-Jun-18 00:30N 34°35' E 134°53'917.1
2018-Jun-18 00:00N 34°31' E 134°43'917.6
2018-Jun-17 23:30N 34°28' E 134°33'816.9
2018-Jun-17 23:00N 34°26' E 134°23'4 5.4
2018-Jun-17 22:13N 34°26' E 134°18'416.6
2018-Jun-17 21:58N 34°24' E 134°14'7 2.9
2018-Jun-17 19:36N 34°24' E 134°06'615.5
2018-Jun-17 19:14N 34°24' E 134°13'416.4
2018-Jun-17 19:00N 34°24' E 134°17'917.4
2018-Jun-17 18:30N 34°27' E 134°27'917.7
2018-Jun-17 18:00N 34°30' E 134°37'918.5
2018-Jun-17 17:30N 34°34' E 134°48'1018.8
2018-Jun-17 16:59N 34°37' E 134°58'816.5
2018-Jun-17 16:30N 34°37' E 135°08'510.5
2018-Jun-17 16:00N 34°41' E 135°12'0 0.0
2018-Jun-17 15:30N 34°41' E 135°12'0 0.0
2018-Jun-17 15:00N 34°41' E 135°12'0 0.0
2018-Jun-17 14:30N 34°41' E 135°12'0 0.0
2018-Jun-17 14:00N 34°41' E 135°12'0 0.0
2018-Jun-17 13:30N 34°41' E 135°12'0 0.0
2018-Jun-17 13:00N 34°41' E 135°12'0 0.0
2018-Jun-17 12:30N 34°41' E 135°12'0 0.5
2018-Jun-17 12:00N 34°41' E 135°12'714.5
2018-Jun-17 11:30N 34°35' E 135°06'714.5
2018-Jun-17 11:00N 34°36' E 134°57'1017.5
2018-Jun-17 10:28N 34°33' E 134°47'817.7
2018-Jun-17 10:00N 34°29' E 134°38'917.6
2018-Jun-17 09:30N 34°26' E 134°28'8 7.5
2018-Jun-17 08:26N 34°26' E 134°18'716.8
2018-Jun-17 08:00N 34°24' E 134°10'4 2.9
2018-Jun-17 06:43N 34°23' E 134°05'615.5
2018-Jun-17 06:21N 34°24' E 134°12'513.6
2018-Jun-17 06:00N 34°26' E 134°17'2 2.4
2018-Jun-17 05:23N 34°26' E 134°19'616.3
2018-Jun-17 05:00N 34°27' E 134°27'917.8
2018-Jun-17 04:30N 34°30' E 134°37'918.4
2018-Jun-17 04:00N 34°34' E 134°47'918.5
2018-Jun-17 03:30N 34°37' E 134°57'816.9
2018-Jun-17 03:00N 34°37' E 135°08'611.2
2018-Jun-17 02:30N 34°41' E 135°12'0 0.2
2018-Jun-17 02:00N 34°41' E 135°12'3 6.6
2018-Jun-17 01:30N 34°38' E 135°11'714.6
2018-Jun-17 01:00N 34°36' E 135°02'714.5
2018-Jun-17 00:30N 34°35' E 134°53'816.6
2018-Jun-17 00:00N 34°31' E 134°44'917.3
2018-Jun-16 23:30N 34°28' E 134°34'917.0
2018-Jun-16 23:00N 34°25' E 134°25'5 5.4
2018-Jun-16 22:08N 34°27' E 134°19'212.6
2018-Jun-16 22:00N 34°26' E 134°17'10 4.3
2018-Jun-16 19:45N 34°24' E 134°06'416.0
2018-Jun-16 19:30N 34°25' E 134°10'816.3
2018-Jun-16 19:00N 34°25' E 134°20'917.4
2018-Jun-16 18:30N 34°28' E 134°30'917.7
2018-Jun-16 18:00N 34°31' E 134°40'918.2
2018-Jun-16 17:30N 34°34' E 134°51'917.5
2018-Jun-16 17:00N 34°38' E 135°00'815.1
2018-Jun-16 16:30N 34°37' E 135°10'4 7.9
2018-Jun-16 16:00N 34°41' E 135°12'0 0.0
2018-Jun-16 15:30N 34°41' E 135°12'0 0.0
2018-Jun-16 15:00N 34°41' E 135°12'0 0.0
2018-Jun-16 14:30N 34°41' E 135°12'0 0.0
2018-Jun-16 14:00N 34°41' E 135°12'0 0.0
2018-Jun-16 13:30N 34°41' E 135°12'0 0.0
2018-Jun-16 13:00N 34°41' E 135°12'0 0.3
2018-Jun-16 12:30N 34°41' E 135°12'713.2
2018-Jun-16 12:00N 34°36' E 135°07'713.2
2018-Jun-16 11:30N 34°37' E 134°59'815.1
2018-Jun-16 11:00N 34°34' E 134°51'817.0
2018-Jun-16 10:30N 34°31' E 134°41'917.7
2018-Jun-16 10:00N 34°27' E 134°31'816.7
2018-Jun-16 09:30N 34°25' E 134°22'3 4.3
2018-Jun-16 08:45N 34°26' E 134°18'4 1.6
2018-Jun-16 06:29N 34°24' E 134°14'5 5.4
2018-Jun-16 05:36N 34°26' E 134°20'114.1
2018-Jun-16 05:30N 34°26' E 134°21'816.9
2018-Jun-16 05:00N 34°29' E 134°31'917.5
2018-Jun-16 04:30N 34°32' E 134°41'917.5
2018-Jun-16 04:00N 34°35' E 134°51'916.4
2018-Jun-16 03:28N 34°37' E 135°01'714.6
2018-Jun-16 03:00N 34°38' E 135°09'4 7.8
2018-Jun-16 02:30N 34°41' E 135°12'0 0.0
2018-Jun-16 01:59N 34°41' E 135°12'4 8.4
2018-Jun-16 01:30N 34°37' E 135°10'714.3
2018-Jun-16 01:00N 34°37' E 135°01'815.0
2018-Jun-16 00:30N 34°34' E 134°53'815.9
2018-Jun-16 00:00N 34°31' E 134°44'817.0
2018-Jun-15 23:31N 34°28' E 134°34'917.1
2018-Jun-15 23:00N 34°25' E 134°24'5 5.6
2018-Jun-15 22:06N 34°26' E 134°18'214.8
2018-Jun-15 22:00N 34°26' E 134°17'5 1.9
2018-Jun-15 19:34N 34°25' E 134°11'116.0
2018-Jun-15 19:30N 34°25' E 134°13'816.3
2018-Jun-15 19:01N 34°26' E 134°22'917.6
2018-Jun-15 18:31N 34°29' E 134°32'917.5
2018-Jun-15 18:01N 34°32' E 134°42'917.2
2018-Jun-15 17:31N 34°35' E 134°52'815.6
2018-Jun-15 17:00N 34°37' E 135°01'714.3
2018-Jun-15 16:31N 34°37' E 135°10'4 8.1
2018-Jun-15 16:00N 34°41' E 135°12'0 0.0
2018-Jun-15 15:30N 34°41' E 135°12'1 2.5
2018-Jun-15 15:00N 34°40' E 135°12'715.0
2018-Jun-15 14:30N 34°35' E 135°05'714.5
2018-Jun-15 14:00N 34°36' E 134°56'914.5
2018-Jun-15 13:24N 34°32' E 134°46'615.9
2018-Jun-15 13:00N 34°30' E 134°39'816.3
2018-Jun-15 12:30N 34°27' E 134°30'815.3
2018-Jun-15 12:00N 34°26' E 134°21'3 3.6
2018-Jun-15 11:18N 34°26' E 134°18'415.4
2018-Jun-15 11:01N 34°24' E 134°13'1 0.6
2018-Jun-15 08:35N 34°24' E 134°15'214.6
2018-Jun-15 08:28N 34°25' E 134°17'3 3.8
2018-Jun-15 07:47N 34°26' E 134°20'416.3
2018-Jun-15 07:30N 34°26' E 134°25'917.3
2018-Jun-15 07:00N 34°29' E 134°35'917.2
2018-Jun-15 06:31N 34°32' E 134°45'815.7
2018-Jun-15 06:00N 34°36' E 134°53'712.8
2018-Jun-15 05:25N 34°37' E 135°02'512.7
2018-Jun-15 05:00N 34°37' E 135°09'5 9.5
2018-Jun-15 04:30N 34°41' E 135°12'0 0.0
2018-Jun-15 04:00N 34°41' E 135°12'0 0.0
2018-Jun-15 03:31N 34°41' E 135°12'0 0.0
2018-Jun-15 03:00N 34°41' E 135°12'0 0.0
2018-Jun-15 02:30N 34°41' E 135°12'0 0.2
2018-Jun-15 02:00N 34°41' E 135°12'612.8
2018-Jun-15 01:31N 34°36' E 135°07'815.5
2018-Jun-15 01:00N 34°37' E 134°58'816.0
2018-Jun-15 00:31N 34°34' E 134°49'816.3
2018-Jun-15 00:00N 34°30' E 134°40'917.3
2018-Jun-14 23:31N 34°27' E 134°30'816.0
2018-Jun-14 23:00N 34°25' E 134°21'3 3.4
2018-Jun-14 22:16N 34°26' E 134°18'415.8
2018-Jun-14 21:59N 34°25' E 134°13'6 3.0
2018-Jun-14 19:55N 34°24' E 134°06'716.6
2018-Jun-14 19:30N 34°24' E 134°14'817.0
2018-Jun-14 19:00N 34°26' E 134°24'917.7
2018-Jun-14 18:30N 34°29' E 134°34'917.4
2018-Jun-14 18:00N 34°32' E 134°44'816.6
2018-Jun-14 17:30N 34°36' E 134°53'814.2
2018-Jun-14 16:59N 34°37' E 135°02'613.4
2018-Jun-14 16:30N 34°38' E 135°10'4 7.6
2018-Jun-14 16:00N 34°41' E 135°12'0 0.0
2018-Jun-14 15:31N 34°41' E 135°12'1 1.2
2018-Jun-14 15:00N 34°40' E 135°12'715.0
2018-Jun-14 14:30N 34°35' E 135°05'714.4
2018-Jun-14 14:00N 34°36' E 134°57'  

Dump ship's entire track history